Time;durP1;ratioP1;P1;durP2;ratioP2;P2;SDS_P1;SDS_P2;PMS_P1;PMS_P2;Temp;Humidity;BMP_temperature;BMP_pressure;BME280_temperature;BME280_humidity;BME280_pressure;Samples;Min_cycle;Max_cycle;Signal;HPM_P1;HPM_P2
2023/12/17 00:02:15;;;;;;;34.65;16.70;;;;;;;0.71;74.35;101808.28;5021499;28;20107;-78
2023/12/17 00:05:01;;;;;;;31.60;15.95;;;;;;;0.66;75.07;101802.53;5015193;28;20072;-79
2023/12/17 00:07:46;;;;;;;34.33;16.95;;;;;;;0.64;75.69;101809.63;5014881;28;20056;-77
2023/12/17 00:10:32;;;;;;;35.28;18.30;;;;;;;0.69;75.69;101820.63;5014472;28;20120;-78
2023/12/17 00:13:18;;;;;;;40.17;18.90;;;;;;;0.60;76.21;101809.00;5013893;28;20108;-77
2023/12/17 00:16:04;;;;;;;30.98;15.07;;;;;;;0.63;76.54;101827.13;5020234;28;20076;-78
2023/12/17 00:18:50;;;;;;;42.58;18.83;;;;;;;0.61;76.85;101830.75;5015149;28;20433;-78
2023/12/17 00:21:35;;;;;;;41.75;21.00;;;;;;;0.56;77.03;101817.13;5014565;28;20048;-79
2023/12/17 00:24:21;;;;;;;40.53;19.98;;;;;;;0.59;77.33;101823.00;5013992;28;20068;-78
2023/12/17 00:27:07;;;;;;;43.47;20.90;;;;;;;0.67;77.42;101831.19;5020481;28;20057;-77
2023/12/17 00:29:52;;;;;;;33.47;17.23;;;;;;;0.59;76.73;101830.03;5015065;28;20488;-78
2023/12/17 00:32:38;;;;;;;36.28;19.80;;;;;;;0.63;77.29;101834.13;5015232;28;20072;-78
2023/12/17 00:35:23;;;;;;;38.22;18.98;;;;;;;0.64;77.13;101827.94;5013676;28;20061;-76
2023/12/17 00:38:09;;;;;;;37.90;20.75;;;;;;;0.62;76.76;101832.44;5019855;28;20072;-76
2023/12/17 00:40:55;;;;;;;35.00;18.80;;;;;;;0.65;76.69;101832.22;5014093;28;20096;-77
2023/12/17 00:43:40;;;;;;;37.95;20.00;;;;;;;0.60;77.57;101822.09;5013736;28;20056;-78
2023/12/17 00:46:25;;;;;;;35.45;17.90;;;;;;;0.74;77.42;101836.84;5013474;28;20052;-76
2023/12/17 00:49:10;;;;;;;32.22;16.65;;;;;;;0.71;77.65;101831.81;5014066;28;20480;-78
2023/12/17 00:51:56;;;;;;;31.08;16.40;;;;;;;0.75;77.29;101849.00;5013888;28;20060;-76
2023/12/17 00:54:42;;;;;;;31.15;16.35;;;;;;;0.81;77.42;101861.69;5013240;28;20401;-77
2023/12/17 00:57:28;;;;;;;38.30;17.33;;;;;;;0.81;76.34;101847.75;5013537;28;20572;-77
2023/12/17 01:00:14;;;;;;;30.10;16.10;;;;;;;0.81;76.66;101853.81;5019021;28;20389;-77
2023/12/17 01:02:59;;;;;;;38.15;17.95;;;;;;;0.86;77.11;101866.63;5013746;28;20393;-76
2023/12/17 01:05:45;;;;;;;37.17;16.92;;;;;;;0.87;77.16;101866.50;5012592;28;20117;-78
2023/12/17 01:08:30;;;;;;;28.42;15.27;;;;;;;0.87;76.15;101869.13;5015631;28;20377;-76
2023/12/17 01:11:16;;;;;;;28.70;14.82;;;;;;;0.79;76.13;101854.91;5015130;28;20063;-78
2023/12/17 01:14:02;;;;;;;28.30;14.15;;;;;;;0.89;76.10;101867.25;5013737;28;20520;-78
2023/12/17 01:16:47;;;;;;;28.05;13.23;;;;;;;0.81;75.61;101855.59;4999600;28;20171;-78
2023/12/17 01:19:34;;;;;;;30.25;14.65;;;;;;;0.88;75.98;101860.34;5013571;28;20392;-76
2023/12/17 01:22:19;;;;;;;33.28;15.10;;;;;;;0.92;75.86;101851.34;5011803;28;20053;-76
2023/12/17 01:25:05;;;;;;;51.25;20.00;;;;;;;0.96;76.31;101853.75;5013739;28;20048;-76
2023/12/17 01:27:50;;;;;;;52.17;19.67;;;;;;;0.99;76.01;101850.94;5012986;28;20060;-78
2023/12/17 01:30:36;;;;;;;37.13;17.33;;;;;;;0.96;75.90;101840.66;5013630;28;20060;-76
2023/12/17 01:33:22;;;;;;;49.58;20.85;;;;;;;1.02;76.63;101842.88;5013222;28;20057;-76
2023/12/17 01:36:07;;;;;;;45.22;21.27;;;;;;;1.04;77.34;101838.38;5032849;28;20072;-77
2023/12/17 01:38:53;;;;;;;51.53;23.52;;;;;;;1.04;77.52;101841.81;5012843;28;20429;-77
2023/12/17 01:41:38;;;;;;;49.90;23.27;;;;;;;0.96;77.13;101824.94;5011997;28;20056;-78
2023/12/17 01:44:27;;;;;;;42.05;21.98;;;;;;;0.95;78.27;101831.13;5013415;28;20394;-75
2023/12/17 01:47:13;;;;;;;42.72;22.02;;;;;;;1.00;78.08;101837.72;4997963;28;20076;-77
2023/12/17 01:49:58;;;;;;;48.28;23.20;;;;;;;0.98;77.65;101834.38;5013110;28;20053;-78
2023/12/17 01:52:44;;;;;;;46.33;21.77;;;;;;;0.99;78.08;101838.66;5012732;28;20056;-79
2023/12/17 01:55:29;;;;;;;46.35;22.23;;;;;;;1.03;77.78;101841.91;5011712;28;20484;-76
2023/12/17 01:58:16;;;;;;;35.25;18.65;;;;;;;0.99;78.25;101857.00;5011496;28;20068;-77
2023/12/17 02:01:03;;;;;;;38.05;20.73;;;;;;;0.92;78.17;101847.88;4997918;28;20064;-77
2023/12/17 02:03:49;;;;;;;38.78;18.95;;;;;;;0.97;77.74;101848.41;5011688;28;20476;-77
2023/12/17 02:06:34;;;;;;;34.80;19.25;;;;;;;0.93;77.63;101844.31;5010870;28;20057;-77
2023/12/17 02:09:19;;;;;;;33.78;18.25;;;;;;;0.96;77.97;101849.34;5011304;28;20064;-77
2023/12/17 02:12:04;;;;;;;31.95;18.08;;;;;;;0.96;78.61;101848.53;5012609;28;20056;-76
2023/12/17 02:14:49;;;;;;;39.92;19.77;;;;;;;0.86;78.09;101835.22;5012008;28;20400;-76
2023/12/17 02:17:35;;;;;;;46.20;23.52;;;;;;;0.83;78.05;101831.00;5018423;28;20376;-78
2023/12/17 02:20:21;;;;;;;37.63;19.60;;;;;;;0.87;77.76;101840.31;5012828;28;20061;-78
2023/12/17 02:23:06;;;;;;;55.15;24.10;;;;;;;0.84;79.23;101830.06;5012369;28;20056;-77
2023/12/17 02:25:51;;;;;;;56.35;26.63;;;;;;;0.78;78.95;101821.78;5010588;28;20056;-77
2023/12/17 02:28:36;;;;;;;66.93;27.13;;;;;;;0.81;79.19;101830.25;5012921;28;20481;-76
2023/12/17 02:31:22;;;;;;;54.17;25.30;;;;;;;0.75;79.70;101828.06;5011831;28;20496;-77
2023/12/17 02:34:07;;;;;;;48.42;24.58;;;;;;;0.77;79.90;101835.81;5010651;28;20052;-77
2023/12/17 02:36:53;;;;;;;45.90;23.67;;;;;;;0.84;80.10;101832.69;5012593;28;20179;-77
2023/12/17 02:39:39;;;;;;;42.25;21.27;;;;;;;0.85;79.54;101831.75;5011815;28;20136;-77
2023/12/17 02:42:24;;;;;;;40.20;18.90;;;;;;;0.86;80.00;101822.94;5012446;28;20393;-77
2023/12/17 02:45:09;;;;;;;36.53;18.88;;;;;;;0.77;79.19;101812.25;5010608;28;20053;-78
2023/12/17 02:47:55;;;;;;;34.50;19.10;;;;;;;0.81;79.08;101821.56;5011527;28;20072;-77
2023/12/17 02:50:40;;;;;;;37.25;20.30;;;;;;;0.74;79.47;101825.56;5012658;28;20369;-77
2023/12/17 02:53:25;;;;;;;39.88;19.75;;;;;;;0.64;79.77;101809.63;5010949;28;20076;-78
2023/12/17 02:56:11;;;;;;;36.30;20.05;;;;;;;0.61;79.29;101804.59;5012980;28;20480;-77
2023/12/17 02:58:57;;;;;;;33.42;19.35;;;;;;;0.68;79.37;101821.56;5013622;28;20401;-77
2023/12/17 03:01:43;;;;;;;39.47;19.77;;;;;;;0.66;79.93;101820.84;5028612;28;20056;-78
2023/12/17 03:04:28;;;;;;;34.90;18.75;;;;;;;0.57;79.83;101813.59;5016222;28;20060;-78
2023/12/17 03:07:14;;;;;;;40.88;19.85;;;;;;;0.46;79.16;101809.88;5017103;28;20057;-78
2023/12/17 03:09:59;;;;;;;36.97;19.35;;;;;;;0.56;79.50;101828.44;5016637;28;20365;-77
2023/12/17 03:12:46;;;;;;;35.53;18.85;;;;;;;0.59;79.36;101837.88;5015868;28;20484;-77
2023/12/17 03:15:31;;;;;;;37.22;18.65;;;;;;;0.57;79.23;101837.16;5016302;28;20484;-77
2023/12/17 03:18:18;;;;;;;39.83;19.67;;;;;;;0.42;79.12;101818.06;5015743;28;20056;-78
2023/12/17 03:21:06;;;;;;;39.78;18.80;;;;;;;0.32;80.58;101828.28;5015946;28;20072;-78
2023/12/17 03:23:51;;;;;;;48.47;22.10;;;;;;;0.24;80.92;101825.31;5015245;28;20373;-77
2023/12/17 03:26:37;;;;;;;58.55;25.67;;;;;;;0.18;80.58;101825.72;5020448;28;20048;-76
2023/12/17 03:29:22;;;;;;;49.40;23.75;;;;;;;0.13;81.14;101833.88;5014865;28;20580;-77
2023/12/17 03:32:07;;;;;;;38.03;21.17;;;;;;;0.04;81.27;101826.59;5014478;28;20057;-77
2023/12/17 03:34:52;;;;;;;41.90;20.98;;;;;;;-0.05;81.68;101821.97;5015620;28;20061;-77
2023/12/17 03:37:38;;;;;;;41.05;21.73;;;;;;;-0.17;82.11;101818.34;5015460;28;20060;-79
2023/12/17 03:40:24;;;;;;;42.03;22.40;;;;;;;-0.27;82.57;101823.31;5015303;28;20045;-78
2023/12/17 03:43:10;;;;;;;45.10;22.23;;;;;;;-0.47;82.98;101815.84;5015425;28;20053;-78
2023/12/17 03:45:55;;;;;;;49.92;22.40;;;;;;;-0.51;83.34;101836.09;5014461;28;20045;-78
2023/12/17 03:48:40;;;;;;;46.38;24.02;;;;;;;-0.49;83.52;101844.69;5015999;28;20053;-77
2023/12/17 03:51:26;;;;;;;46.38;24.38;;;;;;;-0.58;84.10;101845.25;5006939;28;20050;-77
2023/12/17 03:54:11;;;;;;;44.72;23.35;;;;;;;-0.74;84.66;101844.50;5006713;28;20053;-78
2023/12/17 03:56:57;;;;;;;45.75;24.55;;;;;;;-0.68;85.19;101854.59;5015166;28;20045;-78
2023/12/17 03:59:43;;;;;;;45.35;22.77;;;;;;;-0.83;84.83;101834.63;5015207;28;20400;-78
2023/12/17 04:02:29;;;;;;;45.25;22.15;;;;;;;-0.87;84.96;101836.59;5014326;28;20049;-78
2023/12/17 04:05:15;;;;;;;45.05;23.10;;;;;;;-0.85;84.95;101852.97;5006672;28;20385;-78
2023/12/17 04:08:00;;;;;;;40.75;22.83;;;;;;;-0.89;85.26;101840.22;5015146;28;20049;-78
2023/12/17 04:10:46;;;;;;;45.65;23.15;;;;;;;-0.96;86.17;101843.19;5018928;28;20041;-77
2023/12/17 04:13:32;;;;;;;41.88;23.42;;;;;;;-1.11;85.82;101831.03;5013814;28;20464;-78
2023/12/17 04:16:17;;;;;;;46.92;23.50;;;;;;;-1.15;86.43;101839.97;5014608;28;20053;-78
2023/12/17 04:19:03;;;;;;;43.00;24.33;;;;;;;-1.27;86.34;101838.09;5013169;28;20045;-78
2023/12/17 04:21:48;;;;;;;49.53;24.38;;;;;;;-1.37;87.42;101839.56;5014934;28;20461;-78
2023/12/17 04:24:34;;;;;;;43.15;22.75;;;;;;;-1.40;87.62;101845.78;5014396;28;20042;-78
2023/12/17 04:27:19;;;;;;;41.15;22.27;;;;;;;-1.52;87.86;101839.50;5014031;28;20049;-77
2023/12/17 04:30:06;;;;;;;39.60;21.90;;;;;;;-1.40;87.64;101857.06;5013425;28;20453;-77
2023/12/17 04:32:52;;;;;;;41.20;21.55;;;;;;;-1.49;87.98;101848.91;5013339;28;20045;-77
2023/12/17 04:35:37;;;;;;;39.22;21.50;;;;;;;-1.67;88.02;101841.19;5014101;28;20053;-77
2023/12/17 04:38:23;;;;;;;41.83;23.15;;;;;;;-1.68;88.04;101852.56;5014874;28;20458;-77
2023/12/17 04:41:08;;;;;;;45.38;23.63;;;;;;;-1.69;88.85;101865.69;5014825;28;20041;-78
2023/12/17 04:43:54;;;;;;;49.42;23.65;;;;;;;-1.76;88.45;101867.78;5012948;28;20465;-77
2023/12/17 04:46:39;;;;;;;43.45;24.30;;;;;;;-1.76;89.30;101874.78;5019392;28;20045;-77
2023/12/17 04:49:24;;;;;;;37.92;22.38;;;;;;;-1.83;88.33;101886.47;5012850;28;20485;-77
2023/12/17 04:52:10;;;;;;;58.00;28.70;;;;;;;-1.84;89.21;101892.63;5019853;28;20053;-78
2023/12/17 04:54:55;;;;;;;59.22;29.05;;;;;;;-1.86;89.67;101890.91;5005753;28;20392;-78
2023/12/17 04:57:40;;;;;;;62.53;31.42;;;;;;;-1.96;89.79;101886.31;5014230;28;20469;-78
2023/12/17 05:00:25;;;;;;;75.65;37.22;;;;;;;-1.96;89.38;101894.13;5003451;28;20057;-78
2023/12/17 05:03:10;;;;;;;70.57;36.05;;;;;;;-1.96;89.90;101897.56;5015245;28;20046;-79
2023/12/17 05:05:56;;;;;;;82.15;37.78;;;;;;;-1.97;89.66;101897.66;5031445;28;20033;-77
2023/12/17 05:08:41;;;;;;;97.93;40.30;;;;;;;-2.05;89.65;101885.03;5030950;28;20404;-78
2023/12/17 05:11:27;;;;;;;79.93;36.83;;;;;;;-1.92;89.96;101891.25;5037658;28;20392;-78
2023/12/17 05:14:13;;;;;;;76.65;37.90;;;;;;;-1.95;89.67;101907.06;5032216;28;20044;-77
2023/12/17 05:16:59;;;;;;;67.10;35.53;;;;;;;-2.03;89.76;101901.44;5033246;28;20041;-79
2023/12/17 05:19:45;;;;;;;65.93;34.95;;;;;;;-2.16;89.78;101892.59;5031031;28;20037;-78
2023/12/17 05:22:30;;;;;;;63.60;33.92;;;;;;;-2.10;89.71;101905.28;5033184;28;20053;-78
2023/12/17 05:25:16;;;;;;;75.75;35.60;;;;;;;-2.16;89.34;101903.03;5031468;28;20049;-78
2023/12/17 05:28:00;;;;;;;76.65;37.03;;;;;;;-2.19;90.01;101908.41;5031898;28;20040;-78
2023/12/17 05:30:47;;;;;;;70.65;37.17;;;;;;;-2.20;89.57;101902.31;5030141;28;20457;-78
2023/12/17 05:33:31;;;;;;;69.45;36.30;;;;;;;-2.17;89.75;101893.50;5029291;28;20413;-78
2023/12/17 05:36:17;;;;;;;68.38;35.40;;;;;;;-2.14;91.03;101893.34;5038506;28;20049;-79
2023/12/17 05:39:04;;;;;;;76.30;39.72;;;;;;;-2.17;90.95;101896.09;5038323;28;20061;-78
2023/12/17 05:41:50;;;;;;;189.57;89.25;;;;;;;-2.27;90.77;101884.50;5032589;28;20049;-78
2023/12/17 05:44:35;;;;;;;179.75;88.97;;;;;;;-2.26;90.50;101886.19;5031746;28;20037;-78
2023/12/17 05:47:21;;;;;;;187.98;98.90;;;;;;;-2.24;90.89;101885.19;5027000;28;20045;-78
2023/12/17 05:50:07;;;;;;;108.03;56.38;;;;;;;-2.21;90.64;101873.75;5013104;28;20492;-77
2023/12/17 05:52:53;;;;;;;92.13;48.65;;;;;;;-2.20;90.90;101878.88;5011487;28;20057;-78
2023/12/17 05:55:38;;;;;;;66.53;37.65;;;;;;;-2.15;90.31;101881.25;5011521;28;20453;-78
2023/12/17 05:58:24;;;;;;;92.40;40.67;;;;;;;-2.21;90.36;101889.38;5023697;28;20040;-79
2023/12/17 06:01:09;;;;;;;61.38;33.45;;;;;;;-2.21;90.69;101881.56;5033490;28;20049;-77
2023/12/17 06:03:55;;;;;;;86.93;42.80;;;;;;;-2.13;90.19;101890.66;5030916;28;20045;-78
2023/12/17 06:06:41;;;;;;;128.02;64.03;;;;;;;-2.15;90.23;101884.69;5032642;28;20049;-78
2023/12/17 06:09:26;;;;;;;93.53;48.35;;;;;;;-2.08;90.18;101885.19;5032729;28;20029;-77
2023/12/17 06:12:11;;;;;;;77.22;39.63;;;;;;;-2.01;89.29;101881.31;5032562;28;20048;-78
2023/12/17 06:14:56;;;;;;;56.28;31.55;;;;;;;-1.98;89.29;101894.19;5030240;28;20468;-79
2023/12/17 06:17:42;;;;;;;57.22;32.22;;;;;;;-2.01;90.16;101890.91;5018080;28;20049;-77
2023/12/17 06:20:28;;;;;;;77.93;38.30;;;;;;;-1.91;89.62;101902.53;5019309;28;20045;-78
2023/12/17 06:23:14;;;;;;;62.65;33.80;;;;;;;-1.98;89.72;101895.97;5024807;28;20045;-78
2023/12/17 06:26:04;;;;;;;62.80;33.58;;;;;;;-2.00;88.47;101903.88;5031004;28;20049;-78
2023/12/17 06:28:50;;;;;;;70.28;36.45;;;;;;;-1.96;89.58;101897.56;5038287;28;20045;-79
2023/12/17 06:31:35;;;;;;;66.45;35.50;;;;;;;-1.95;89.42;101903.63;5032015;28;20381;-77
2023/12/17 06:34:21;;;;;;;70.43;36.47;;;;;;;-1.87;89.44;101898.84;5029885;28;20041;-77
2023/12/17 06:37:06;;;;;;;78.40;41.28;;;;;;;-1.60;88.88;101904.28;5032174;28;20053;-77
2023/12/17 06:39:52;;;;;;;63.25;33.65;;;;;;;-1.28;88.87;101896.44;5031447;28;20392;-77
2023/12/17 06:42:37;;;;;;;54.33;30.83;;;;;;;-0.94;87.62;101884.84;5032059;28;20392;-77
2023/12/17 06:45:23;;;;;;;67.25;36.83;;;;;;;-0.50;85.89;101878.78;5032025;28;20476;-76
2023/12/17 06:48:08;;;;;;;79.78;38.17;;;;;;;-0.12;83.34;101886.03;5014483;28;20046;-78
2023/12/17 06:50:54;;;;;;;92.55;45.22;;;;;;;0.28;82.00;101905.25;5012340;28;20477;-77
2023/12/17 06:53:39;;;;;;;87.75;43.92;;;;;;;0.43;80.23;101893.81;5011077;28;20068;-77
2023/12/17 06:56:25;;;;;;;100.85;46.30;;;;;;;0.66;79.54;101881.88;5011706;28;20488;-77
2023/12/17 06:59:11;;;;;;;108.57;49.97;;;;;;;0.35;79.75;101887.41;5010932;28;20401;-77
2023/12/17 07:01:56;;;;;;;119.72;50.17;;;;;;;-0.02;80.49;101890.56;5013032;28;20049;-76
2023/12/17 07:04:42;;;;;;;118.03;53.50;;;;;;;-0.25;81.84;101888.56;5026654;28;20045;-78
2023/12/17 07:07:27;;;;;;;118.10;53.17;;;;;;;-0.25;82.93;101893.78;5023275;28;20045;-78
2023/12/17 07:10:12;;;;;;;131.43;63.95;;;;;;;-0.01;83.91;101902.69;5032476;28;20104;-78
2023/12/17 07:12:58;;;;;;;95.50;47.15;;;;;;;0.10;82.15;101904.66;5033055;28;20361;-76
2023/12/17 07:15:43;;;;;;;112.50;54.35;;;;;;;0.35;80.90;101914.41;5032605;28;20074;-76
2023/12/17 07:18:29;;;;;;;107.93;47.30;;;;;;;0.34;78.67;101911.88;5037969;28;20409;-76
2023/12/17 07:21:15;;;;;;;98.93;47.50;;;;;;;0.33;78.68;101913.66;5035470;28;20049;-78
2023/12/17 07:24:00;;;;;;;96.57;47.67;;;;;;;0.30;78.84;101910.41;5012723;28;20048;-77
2023/12/17 07:26:45;;;;;;;125.05;56.25;;;;;;;-0.16;80.17;101898.41;5006743;28;20072;-76
2023/12/17 07:29:32;;;;;;;83.68;39.30;;;;;;;-0.12;80.15;101915.63;5029508;28;20037;-76
2023/12/17 07:32:17;;;;;;;80.78;40.13;;;;;;;0.13;80.60;101914.94;5031453;28;20384;-76
2023/12/17 07:35:05;;;;;;;74.95;40.20;;;;;;;0.24;79.97;101916.84;5031991;28;20048;-77
2023/12/17 07:37:50;;;;;;;95.30;45.20;;;;;;;0.23;80.68;101907.34;5033701;28;20080;-77
2023/12/17 07:40:35;;;;;;;106.97;51.30;;;;;;;0.41;79.38;101895.72;5017157;28;20401;-78
2023/12/17 07:43:21;;;;;;;150.27;63.05;;;;;;;0.61;78.95;101894.41;5038358;28;20045;-77
2023/12/17 07:46:07;;;;;;;95.10;41.20;;;;;;;0.74;77.83;101894.44;5054654;28;20457;-76
2023/12/17 07:48:52;;;;;;;88.40;43.75;;;;;;;0.80;79.01;101893.22;5028299;28;20052;-77
2023/12/17 07:51:38;;;;;;;98.93;45.88;;;;;;;0.68;79.00;101885.22;5014906;28;20389;-78
2023/12/17 07:54:24;;;;;;;109.30;48.90;;;;;;;0.81;78.85;101887.03;5022427;28;20072;-76
2023/12/17 07:57:09;;;;;;;95.80;44.88;;;;;;;0.96;77.10;101895.66;5041810;28;20057;-78
2023/12/17 07:59:55;;;;;;;93.63;41.63;;;;;;;1.12;77.54;101894.50;5034743;28;20396;-78
2023/12/17 08:02:40;;;;;;;93.10;43.30;;;;;;;1.12;76.55;101884.03;5032665;28;20480;-77
2023/12/17 08:05:26;;;;;;;96.28;45.75;;;;;;;1.29;75.94;101890.78;5034280;28;20491;-78
2023/12/17 08:08:11;;;;;;;92.38;44.63;;;;;;;1.56;75.79;101888.03;5034425;28;20052;-77
2023/12/17 08:10:57;;;;;;;86.18;41.58;;;;;;;1.37;74.76;101875.34;5016825;28;20064;-76
2023/12/17 08:13:44;;;;;;;116.80;51.63;;;;;;;1.65;74.21;101886.56;5014697;28;20056;-78
2023/12/17 08:16:30;;;;;;;74.70;35.75;;;;;;;1.82;72.97;101893.25;5028344;28;20424;-75
2023/12/17 08:19:16;;;;;;;63.33;29.30;;;;;;;1.39;73.87;101891.81;5020351;28;20052;-77
2023/12/17 08:22:02;;;;;;;51.75;27.50;;;;;;;1.40;73.25;101887.41;5034402;28;20063;-76
2023/12/17 08:24:47;;;;;;;66.80;33.97;;;;;;;1.39;73.79;101889.19;5033568;28;20424;-77
2023/12/17 08:27:32;;;;;;;77.55;36.97;;;;;;;1.42;73.85;101892.56;5033983;28;20484;-76
2023/12/17 08:30:18;;;;;;;32.03;16.58;;;;;;;1.39;72.28;101896.22;5034485;28;20048;-77
2023/12/17 08:33:04;;;;;;;30.88;16.25;;;;;;;1.32;73.39;101898.44;5033155;28;20056;-77
2023/12/17 08:35:49;;;;;;;32.67;17.02;;;;;;;1.36;73.70;101906.91;5041684;28;20048;-77
2023/12/17 08:38:35;;;;;;;32.95;17.17;;;;;;;1.47;74.15;101917.47;5014496;28;20060;-76
2023/12/17 08:41:20;;;;;;;34.58;17.27;;;;;;;1.45;73.45;101916.78;5031684;28;20052;-77
2023/12/17 08:44:05;;;;;;;40.92;19.70;;;;;;;1.51;74.54;101907.66;5034458;28;20044;-76
2023/12/17 08:46:51;;;;;;;38.72;21.63;;;;;;;1.74;75.04;101917.38;5032776;28;20072;-78
2023/12/17 08:49:36;;;;;;;38.75;21.15;;;;;;;2.00;72.65;101925.19;5033051;28;20072;-78
2023/12/17 08:52:21;;;;;;;34.72;20.63;;;;;;;2.07;72.51;101918.59;5031136;28;20075;-76
2023/12/17 08:55:06;;;;;;;78.10;35.35;;;;;;;2.16;72.70;101912.69;5032249;28;20455;-76
2023/12/17 08:57:53;;;;;;;40.67;24.15;;;;;;;2.35;71.91;101919.22;5033759;28;20396;-78
2023/12/17 09:00:38;;;;;;;39.75;21.70;;;;;;;2.48;70.53;101917.41;5025973;28;20056;-78
2023/12/17 09:03:23;;;;;;;47.15;27.38;;;;;;;2.56;69.65;101917.69;5018881;28;20500;-78
2023/12/17 09:06:08;;;;;;;57.35;31.17;;;;;;;2.66;69.63;101910.81;5029304;28;20476;-78
2023/12/17 09:08:53;;;;;;;102.10;41.30;;;;;;;2.57;69.69;101901.00;5031821;28;20069;-79
2023/12/17 09:11:39;;;;;;;45.08;22.33;;;;;;;2.65;68.10;101897.81;5032853;28;20037;-77
2023/12/17 09:14:26;;;;;;;32.10;18.73;;;;;;;2.46;67.61;101888.66;5033930;28;20353;-77
2023/12/17 09:17:11;;;;;;;42.30;21.25;;;;;;;2.29;69.25;101886.41;5038482;28;20412;-78
2023/12/17 09:19:56;;;;;;;32.72;17.42;;;;;;;2.50;67.33;101876.13;5030974;28;20068;-77
2023/12/17 09:22:42;;;;;;;29.30;17.15;;;;;;;2.67;69.01;101873.13;5013692;28;20072;-76
2023/12/17 09:25:28;;;;;;;71.75;32.28;;;;;;;2.85;67.64;101864.81;5044524;28;20060;-79
2023/12/17 09:28:14;;;;;;;40.22;20.88;;;;;;;3.07;67.68;101861.41;5033030;28;20430;-76
2023/12/17 09:31:01;;;;;;;32.28;17.42;;;;;;;3.02;67.13;101846.00;5038742;28;20571;-77
2023/12/17 09:33:46;;;;;;;32.53;15.95;;;;;;;2.81;67.42;101853.69;5031321;28;20396;-77
2023/12/17 09:36:31;;;;;;;19.38;10.15;;;;;;;2.66;67.81;101842.53;5037249;28;20499;-76
2023/12/17 09:39:16;;;;;;;40.08;20.92;;;;;;;2.73;68.25;101841.16;5038162;28;20047;-76
2023/12/17 09:42:03;;;;;;;33.47;18.75;;;;;;;2.68;68.96;101851.16;5031534;28;20064;-76
2023/12/17 09:44:49;;;;;;;28.95;15.35;;;;;;;2.86;68.09;101842.84;5030062;28;20052;-75
2023/12/17 09:47:35;;;;;;;30.13;17.30;;;;;;;2.94;66.76;101814.19;5025697;28;20064;-77
2023/12/17 09:50:27;;;;;;;34.85;19.10;;;;;;;3.22;65.89;101829.53;5033578;28;20056;-78
2023/12/17 09:53:12;;;;;;;35.22;18.83;;;;;;;3.44;66.87;101833.97;5030104;28;20396;-78
2023/12/17 09:55:58;;;;;;;53.30;24.77;;;;;;;3.46;66.11;101833.84;5028215;28;20056;-77
2023/12/17 09:58:43;;;;;;;31.00;16.05;;;;;;;3.31;66.72;101832.41;5024386;28;20068;-75
2023/12/17 10:01:29;;;;;;;27.50;15.80;;;;;;;3.44;65.78;101809.47;5015402;28;20060;-78
2023/12/17 10:04:14;;;;;;;26.00;14.32;;;;;;;3.24;65.36;101805.78;5024274;28;20080;-76
2023/12/17 10:06:59;;;;;;;27.02;14.27;;;;;;;3.18;65.54;101811.50;5021976;28;20480;-76
2023/12/17 10:09:45;;;;;;;44.20;19.90;;;;;;;3.50;67.18;101795.84;5010949;28;20410;-76
2023/12/17 10:12:31;;;;;;;30.75;15.52;;;;;;;3.41;64.91;101812.34;5018284;28;20484;-76
2023/12/17 10:15:18;;;;;;;31.27;16.67;;;;;;;3.63;64.35;101809.69;5019432;28;20044;-75
2023/12/17 10:18:04;;;;;;;23.63;12.95;;;;;;;3.43;64.47;101815.69;5024181;28;20500;-75
2023/12/17 10:20:50;;;;;;;20.95;11.90;;;;;;;3.46;63.14;101804.94;5016152;28;20400;-76
2023/12/17 10:23:46;;;;;;;26.58;15.23;;;;;;;3.66;64.44;101790.19;5024922;28;20068;-76
2023/12/17 10:26:48;;;;;;;28.30;16.60;;;;;;;3.92;63.85;101785.50;5036078;28;20052;-76
2023/12/17 10:29:33;;;;;;;29.65;16.15;;;;;;;4.09;62.84;101784.13;5054993;28;20392;-76
2023/12/17 10:32:28;;;;;;;29.67;16.73;;;;;;;4.04;63.00;101776.63;5026654;28;20048;-77
2023/12/17 10:35:16;;;;;;;26.45;15.95;;;;;;;4.31;61.99;101788.47;5032541;28;20368;-76
2023/12/17 10:38:07;;;;;;;31.45;15.15;;;;;;;4.42;60.80;101791.06;5030806;28;20072;-78
2023/12/17 10:41:06;;;;;;;22.20;13.32;;;;;;;4.48;60.15;101782.66;5033224;28;20051;-80
2023/12/17 10:43:57;;;;;;;34.53;19.35;;;;;;;4.51;60.35;101777.13;5036650;28;20467;-78
2023/12/17 10:46:43;;;;;;;32.90;19.08;;;;;;;4.47;60.96;101759.91;5033697;28;20392;-78
2023/12/17 10:49:28;;;;;;;27.83;15.85;;;;;;;4.63;60.09;101756.81;5038150;28;20071;-76
2023/12/17 10:52:15;;;;;;;31.65;17.45;;;;;;;4.64;59.24;101753.25;5023387;28;20068;-77
2023/12/17 10:55:00;;;;;;;31.83;17.52;;;;;;;4.61;60.29;101751.69;5038439;28;20059;-75
2023/12/17 10:57:51;;;;;;;29.98;16.92;;;;;;;4.64;59.24;101750.59;5032038;28;20079;-76
2023/12/17 11:00:37;;;;;;;26.02;15.43;;;;;;;4.80;58.58;101745.72;5032989;28;20060;-76
2023/12/17 11:03:25;;;;;;;29.08;16.15;;;;;;;4.81;57.62;101733.38;5037784;28;20052;-76
2023/12/17 11:06:09;;;;;;;22.77;12.50;;;;;;;4.42;57.18;101714.72;5015494;28;20397;-77
2023/12/17 11:08:56;;;;;;;23.92;15.60;;;;;;;4.49;58.59;101729.03;5010276;28;20049;-76
2023/12/17 11:11:42;;;;;;;27.80;14.65;;;;;;;4.51;58.88;101727.09;5011409;28;20048;-76
2023/12/17 11:14:27;;;;;;;26.25;14.13;;;;;;;4.48;57.41;101710.69;5018335;28;20477;-76
2023/12/17 11:17:16;;;;;;;59.03;26.20;;;;;;;4.79;57.35;101712.41;5011114;28;20048;-76
2023/12/17 11:20:01;;;;;;;39.45;20.92;;;;;;;4.94;57.31;101705.00;5011580;28;20052;-76
2023/12/17 11:22:47;;;;;;;25.23;14.77;;;;;;;4.84;57.10;101712.03;5013270;28;20076;-77
2023/12/17 11:25:34;;;;;;;23.05;13.27;;;;;;;4.85;56.23;101709.25;5022010;28;20151;-78
2023/12/17 11:28:26;;;;;;;25.67;13.57;;;;;;;4.99;55.87;101707.25;5017889;28;20048;-77
2023/12/17 11:31:11;;;;;;;21.65;13.00;;;;;;;4.94;57.63;101704.16;5026549;28;20471;-78
2023/12/17 11:33:57;;;;;;;22.17;12.82;;;;;;;5.07;58.52;101692.41;5023290;28;20060;-75
2023/12/17 11:36:42;;;;;;;18.50;11.73;;;;;;;5.20;57.95;101683.44;5015028;28;20393;-77
2023/12/17 11:39:29;;;;;;;26.73;15.85;;;;;;;5.36;57.63;101670.59;5019520;28;20064;-76
2023/12/17 11:42:16;;;;;;;27.65;16.15;;;;;;;5.33;56.39;101660.31;5013857;28;20515;-77
2023/12/17 11:45:02;;;;;;;20.75;14.23;;;;;;;5.47;56.06;101673.09;5015982;28;20048;-78
2023/12/17 11:47:47;;;;;;;26.08;15.57;;;;;;;5.14;57.10;101647.06;5022228;28;20400;-76
2023/12/17 11:50:42;;;;;;;34.75;16.27;;;;;;;5.50;57.72;101664.06;5037749;28;20487;-77
2023/12/17 11:53:30;;;;;;;25.23;14.48;;;;;;;5.40;56.79;101645.59;5030992;28;20047;-76
2023/12/17 11:56:16;;;;;;;25.58;14.25;;;;;;;5.36;56.60;101638.09;5035166;28;20059;-78
2023/12/17 11:59:02;;;;;;;23.58;13.98;;;;;;;5.45;55.85;101647.81;5035296;28;20084;-77
2023/12/17 12:01:48;;;;;;;21.23;12.63;;;;;;;5.23;56.24;101646.25;5036570;28;20056;-77
2023/12/17 12:04:40;;;;;;;24.90;13.40;;;;;;;5.28;56.72;101649.31;5032269;28;20067;-78
2023/12/17 12:07:27;;;;;;;20.38;10.77;;;;;;;5.27;55.19;101642.41;5033235;28;20067;-76
2023/12/17 12:10:12;;;;;;;10.30;7.25;;;;;;;5.23;53.72;101640.97;5031906;28;20048;-77
2023/12/17 12:13:02;;;;;;;12.50;8.20;;;;;;;5.26;54.08;101630.16;5034377;28;20068;-77
2023/12/17 12:15:47;;;;;;;11.50;7.07;;;;;;;5.25;54.15;101631.97;5034458;28;20423;-78
2023/12/17 12:18:33;;;;;;;17.70;10.60;;;;;;;5.47;56.37;101628.25;5034637;28;20064;-77
2023/12/17 12:21:21;;;;;;;25.15;13.10;;;;;;;5.53;54.45;101619.78;5033927;28;20488;-77
2023/12/17 12:24:10;;;;;;;15.80;9.05;;;;;;;5.41;54.72;101627.97;5034974;28;20072;-75
2023/12/17 12:26:55;;;;;;;18.35;10.95;;;;;;;5.46;55.09;101629.22;5033249;28;20052;-77
2023/12/17 12:29:46;;;;;;;28.50;15.30;;;;;;;5.60;55.75;101627.97;5033306;28;20423;-76
2023/12/17 12:32:32;;;;;;;19.48;12.35;;;;;;;5.72;53.73;101634.78;5032486;28;20487;-76
2023/12/17 12:35:23;;;;;;;18.83;11.15;;;;;;;5.68;54.23;101637.84;5032889;28;20404;-76
2023/12/17 12:38:18;;;;;;;17.50;11.10;;;;;;;5.71;54.79;101645.50;5032253;28;20400;-77
2023/12/17 12:41:13;;;;;;;20.30;10.93;;;;;;;5.77;54.05;101640.50;5034122;28;20055;-76